sensor_id;sensor_type;location;lat;lon;timestamp;pressure;altitude;pressure_sealevel;temperature;humidity
78845;BME280;68195;50.854;2.860;2023-05-06T00:00:44;101503.22;;;13.81;79.86
78845;BME280;68195;50.854;2.860;2023-05-06T00:03:09;101505.13;;;13.77;79.97
78845;BME280;68195;50.854;2.860;2023-05-06T00:05:37;101488.78;;;13.72;79.73
78845;BME280;68195;50.854;2.860;2023-05-06T00:08:05;101471.78;;;13.62;79.71
78845;BME280;68195;50.854;2.860;2023-05-06T00:10:31;101509.47;;;13.78;80.26
78845;BME280;68195;50.854;2.860;2023-05-06T00:12:56;101467.03;;;13.52;80.09
78845;BME280;68195;50.854;2.860;2023-05-06T00:15:21;101484.84;;;13.63;80.75
78845;BME280;68195;50.854;2.860;2023-05-06T00:17:47;101446.53;;;13.24;80.53
78845;BME280;68195;50.854;2.860;2023-05-06T00:20:12;101473.59;;;13.44;81.48
78845;BME280;68195;50.854;2.860;2023-05-06T00:22:39;101401.84;;;12.91;81.41
78845;BME280;68195;50.854;2.860;2023-05-06T00:25:06;101506.63;;;13.65;81.61
78845;BME280;68195;50.854;2.860;2023-05-06T00:27:32;101510.16;;;13.64;81.36
78845;BME280;68195;50.854;2.860;2023-05-06T00:29:57;101449.63;;;13.32;81.24
78845;BME280;68195;50.854;2.860;2023-05-06T00:32:22;101489.03;;;13.50;81.59
78845;BME280;68195;50.854;2.860;2023-05-06T00:34:48;101463.16;;;13.42;81.50
78845;BME280;68195;50.854;2.860;2023-05-06T00:37:13;101494.47;;;13.63;81.65
78845;BME280;68195;50.854;2.860;2023-05-06T00:39:41;101431.81;;;13.22;81.66
78845;BME280;68195;50.854;2.860;2023-05-06T00:42:09;101457.31;;;13.37;81.67
78845;BME280;68195;50.854;2.860;2023-05-06T00:44:36;101494.72;;;13.58;81.82
78845;BME280;68195;50.854;2.860;2023-05-06T00:47:02;101485.09;;;13.59;82.07
78845;BME280;68195;50.854;2.860;2023-05-06T00:49:31;101483.44;;;13.56;82.04
78845;BME280;68195;50.854;2.860;2023-05-06T00:51:58;101478.19;;;13.56;81.97
78845;BME280;68195;50.854;2.860;2023-05-06T00:54:24;101470.56;;;13.51;81.84
78845;BME280;68195;50.854;2.860;2023-05-06T00:56:53;101411.97;;;13.16;82.06
78845;BME280;68195;50.854;2.860;2023-05-06T00:59:18;101451.88;;;13.40;82.14
78845;BME280;68195;50.854;2.860;2023-05-06T01:01:44;101470.41;;;13.54;82.22
78845;BME280;68195;50.854;2.860;2023-05-06T01:04:09;101462.97;;;13.45;82.80
78845;BME280;68195;50.854;2.860;2023-05-06T01:09:52;101469.09;;;13.46;82.74
78845;BME280;68195;50.854;2.860;2023-05-06T01:12:26;101470.25;;;13.40;82.85
78845;BME280;68195;50.854;2.860;2023-05-06T01:17:33;101343.22;;;12.57;82.95
78845;BME280;68195;50.854;2.860;2023-05-06T01:20:00;101442.44;;;13.19;82.88
78845;BME280;68195;50.854;2.860;2023-05-06T01:22:27;101413.75;;;12.98;82.79
78845;BME280;68195;50.854;2.860;2023-05-06T01:24:55;101476.75;;;13.33;82.62
78845;BME280;68195;50.854;2.860;2023-05-06T01:27:21;101468.09;;;13.31;82.77
78845;BME280;68195;50.854;2.860;2023-05-06T01:29:47;101418.09;;;12.98;82.64
78845;BME280;68195;50.854;2.860;2023-05-06T01:32:17;101470.03;;;13.26;82.68
78845;BME280;68195;50.854;2.860;2023-05-06T01:34:54;101421.75;;;12.95;82.25
78845;BME280;68195;50.854;2.860;2023-05-06T01:40:05;101441.19;;;13.08;82.37
78845;BME280;68195;50.854;2.860;2023-05-06T01:42:33;101457.56;;;13.13;82.33
78845;BME280;68195;50.854;2.860;2023-05-06T01:45:03;101456.91;;;13.08;82.87
78845;BME280;68195;50.854;2.860;2023-05-06T01:47:31;101448.97;;;13.10;82.80
78845;BME280;68195;50.854;2.860;2023-05-06T01:50:00;101467.09;;;13.14;83.06
78845;BME280;68195;50.854;2.860;2023-05-06T01:52:26;101453.53;;;13.06;82.11
78845;BME280;68195;50.854;2.860;2023-05-06T01:54:53;101465.44;;;13.13;82.95
78845;BME280;68195;50.854;2.860;2023-05-06T01:57:19;101464.66;;;13.11;82.27
78845;BME280;68195;50.854;2.860;2023-05-06T01:59:47;101410.22;;;12.80;82.50
78845;BME280;68195;50.854;2.860;2023-05-06T02:02:15;101392.69;;;12.63;82.71
78845;BME280;68195;50.854;2.860;2023-05-06T02:04:40;101458.75;;;13.06;83.11
78845;BME280;68195;50.854;2.860;2023-05-06T02:07:05;101450.44;;;12.98;82.87
78845;BME280;68195;50.854;2.860;2023-05-06T02:09:31;101453.69;;;13.03;83.21
78845;BME280;68195;50.854;2.860;2023-05-06T02:11:58;101444.72;;;12.90;83.52
78845;BME280;68195;50.854;2.860;2023-05-06T02:14:25;101455.69;;;12.98;83.08
78845;BME280;68195;50.854;2.860;2023-05-06T02:16:53;101459.16;;;12.99;83.41
78845;BME280;68195;50.854;2.860;2023-05-06T02:19:19;101444.00;;;12.86;83.52
78845;BME280;68195;50.854;2.860;2023-05-06T02:21:44;101468.03;;;12.96;83.33
78845;BME280;68195;50.854;2.860;2023-05-06T02:24:10;101427.78;;;12.78;83.43
78845;BME280;68195;50.854;2.860;2023-05-06T02:26:35;101466.47;;;12.92;83.52
78845;BME280;68195;50.854;2.860;2023-05-06T02:29:00;101409.34;;;12.62;83.50
78845;BME280;68195;50.854;2.860;2023-05-06T02:31:25;101463.91;;;12.90;83.23
78845;BME280;68195;50.854;2.860;2023-05-06T02:33:56;101441.00;;;12.77;83.32
78845;BME280;68195;50.854;2.860;2023-05-06T02:36:23;101410.69;;;12.52;82.72
78845;BME280;68195;50.854;2.860;2023-05-06T02:38:49;101457.13;;;12.86;83.42
78845;BME280;68195;50.854;2.860;2023-05-06T02:41:14;101461.66;;;12.83;83.29
78845;BME280;68195;50.854;2.860;2023-05-06T02:43:42;101406.47;;;12.49;83.65
78845;BME280;68195;50.854;2.860;2023-05-06T02:46:09;101459.25;;;12.78;83.77
78845;BME280;68195;50.854;2.860;2023-05-06T02:48:37;101461.03;;;12.78;83.63
78845;BME280;68195;50.854;2.860;2023-05-06T02:51:04;101412.91;;;12.42;83.76
78845;BME280;68195;50.854;2.860;2023-05-06T02:53:29;101430.59;;;12.56;84.01
78845;BME280;68195;50.854;2.860;2023-05-06T02:55:59;101402.09;;;12.31;83.52
78845;BME280;68195;50.854;2.860;2023-05-06T02:58:27;101461.69;;;12.64;83.65
78845;BME280;68195;50.854;2.860;2023-05-06T03:00:55;101469.34;;;12.68;84.00
78845;BME280;68195;50.854;2.860;2023-05-06T03:03:23;101419.44;;;12.34;83.46
78845;BME280;68195;50.854;2.860;2023-05-06T03:05:50;101427.00;;;12.40;83.46
78845;BME280;68195;50.854;2.860;2023-05-06T03:08:18;101467.06;;;12.61;83.59
78845;BME280;68195;50.854;2.860;2023-05-06T03:10:46;101471.47;;;12.60;83.59
78845;BME280;68195;50.854;2.860;2023-05-06T03:13:14;101450.09;;;12.50;83.43
78845;BME280;68195;50.854;2.860;2023-05-06T03:15:39;101449.31;;;12.48;83.62
78845;BME280;68195;50.854;2.860;2023-05-06T03:18:05;101456.06;;;12.52;84.02
78845;BME280;68195;50.854;2.860;2023-05-06T03:20:33;101462.88;;;12.57;83.96
78845;BME280;68195;50.854;2.860;2023-05-06T03:22:58;101412.91;;;12.23;84.30
78845;BME280;68195;50.854;2.860;2023-05-06T03:25:23;101463.25;;;12.49;84.25
78845;BME280;68195;50.854;2.860;2023-05-06T03:27:49;101469.34;;;12.49;84.55
78845;BME280;68195;50.854;2.860;2023-05-06T03:30:14;101465.94;;;12.47;84.30
78845;BME280;68195;50.854;2.860;2023-05-06T03:32:40;101416.53;;;12.21;84.38
78845;BME280;68195;50.854;2.860;2023-05-06T03:35:05;101458.44;;;12.40;84.71
78845;BME280;68195;50.854;2.860;2023-05-06T03:37:32;101386.09;;;11.99;84.67
78845;BME280;68195;50.854;2.860;2023-05-06T03:39:57;101451.72;;;12.34;84.59
78845;BME280;68195;50.854;2.860;2023-05-06T03:42:24;101457.00;;;12.32;84.58
78845;BME280;68195;50.854;2.860;2023-05-06T03:44:50;101456.16;;;12.32;84.63
78845;BME280;68195;50.854;2.860;2023-05-06T03:47:15;101437.38;;;12.22;84.34
78845;BME280;68195;50.854;2.860;2023-05-06T03:49:41;101457.84;;;12.33;84.87
78845;BME280;68195;50.854;2.860;2023-05-06T03:52:10;101388.25;;;11.89;84.90
78845;BME280;68195;50.854;2.860;2023-05-06T03:54:36;101430.16;;;12.08;85.03
78845;BME280;68195;50.854;2.860;2023-05-06T03:57:04;101408.03;;;11.97;85.18
78845;BME280;68195;50.854;2.860;2023-05-06T03:59:29;101464.34;;;12.24;84.65
78845;BME280;68195;50.854;2.860;2023-05-06T04:01:54;101435.63;;;12.04;85.02
78845;BME280;68195;50.854;2.860;2023-05-06T04:04:20;101457.59;;;12.20;85.14
78845;BME280;68195;50.854;2.860;2023-05-06T04:06:47;101422.81;;;11.98;84.77
78845;BME280;68195;50.854;2.860;2023-05-06T04:09:13;101457.72;;;12.17;84.65
78845;BME280;68195;50.854;2.860;2023-05-06T04:11:38;101460.22;;;12.20;84.65
78845;BME280;68195;50.854;2.860;2023-05-06T04:14:03;101462.88;;;12.19;84.93
78845;BME280;68195;50.854;2.860;2023-05-06T04:16:33;101439.09;;;12.04;84.68
78845;BME280;68195;50.854;2.860;2023-05-06T04:19:01;101455.16;;;12.16;84.44
78845;BME280;68195;50.854;2.860;2023-05-06T04:21:31;101458.69;;;12.15;85.03
78845;BME280;68195;50.854;2.860;2023-05-06T04:23:57;101448.28;;;12.13;84.62
78845;BME280;68195;50.854;2.860;2023-05-06T04:26:23;101462.22;;;12.14;84.64
78845;BME280;68195;50.854;2.860;2023-05-06T04:28:53;101466.75;;;12.10;84.58
78845;BME280;68195;50.854;2.860;2023-05-06T04:31:18;101424.00;;;11.90;85.09
78845;BME280;68195;50.854;2.860;2023-05-06T04:33:43;101455.31;;;12.13;85.19
78845;BME280;68195;50.854;2.860;2023-05-06T04:36:09;101404.34;;;11.80;85.07
78845;BME280;68195;50.854;2.860;2023-05-06T04:38:37;101463.09;;;12.14;85.38
78845;BME280;68195;50.854;2.860;2023-05-06T04:41:05;101470.16;;;12.12;84.89
78845;BME280;68195;50.854;2.860;2023-05-06T04:43:33;101398.59;;;11.72;85.36
78845;BME280;68195;50.854;2.860;2023-05-06T04:45:58;101397.13;;;11.66;84.96
78845;BME280;68195;50.854;2.860;2023-05-06T04:48:28;101453.31;;;11.99;85.14
78845;BME280;68195;50.854;2.860;2023-05-06T04:50:54;101468.72;;;11.84;87.19
78845;BME280;68195;50.854;2.860;2023-05-06T04:53:19;101478.03;;;11.92;86.47
78845;BME280;68195;50.854;2.860;2023-05-06T04:55:44;101489.03;;;12.00;86.21
78845;BME280;68195;50.854;2.860;2023-05-06T04:58:10;101483.53;;;12.06;86.05
78845;BME280;68195;50.854;2.860;2023-05-06T05:00:37;101435.50;;;11.86;85.49
78845;BME280;68195;50.854;2.860;2023-05-06T05:03:03;101470.03;;;12.15;85.64
78845;BME280;68195;50.854;2.860;2023-05-06T05:05:28;101474.25;;;12.18;85.36
78845;BME280;68195;50.854;2.860;2023-05-06T05:07:55;101389.44;;;11.62;85.13
78845;BME280;68195;50.854;2.860;2023-05-06T05:10:20;101481.06;;;12.22;85.91
78845;BME280;68195;50.854;2.860;2023-05-06T05:12:48;101463.22;;;12.11;86.02
78845;BME280;68195;50.854;2.860;2023-05-06T05:15:16;101439.13;;;12.03;85.59
78845;BME280;68195;50.854;2.860;2023-05-06T05:17:42;101487.66;;;12.30;86.08
78845;BME280;68195;50.854;2.860;2023-05-06T05:20:10;101473.56;;;12.14;85.65
78845;BME280;68195;50.854;2.860;2023-05-06T05:22:36;101479.28;;;12.22;86.08
78845;BME280;68195;50.854;2.860;2023-05-06T05:25:01;101483.28;;;12.31;85.80
78845;BME280;68195;50.854;2.860;2023-05-06T05:27:31;101488.59;;;12.29;86.29
78845;BME280;68195;50.854;2.860;2023-05-06T05:29:58;101434.22;;;11.97;85.99
78845;BME280;68195;50.854;2.860;2023-05-06T05:32:26;101442.63;;;12.03;86.38
78845;BME280;68195;50.854;2.860;2023-05-06T05:34:51;101423.84;;;11.94;86.29
78845;BME280;68195;50.854;2.860;2023-05-06T05:37:17;101490.78;;;12.39;86.21
78845;BME280;68195;50.854;2.860;2023-05-06T05:39:44;101446.66;;;12.10;86.08
78845;BME280;68195;50.854;2.860;2023-05-06T05:42:10;101490.56;;;12.43;86.32
78845;BME280;68195;50.854;2.860;2023-05-06T05:44:35;101437.81;;;12.13;86.87
78845;BME280;68195;50.854;2.860;2023-05-06T05:47:03;101497.25;;;12.50;86.29
78845;BME280;68195;50.854;2.860;2023-05-06T05:49:29;101457.00;;;12.32;86.45
78845;BME280;68195;50.854;2.860;2023-05-06T05:51:54;101503.19;;;12.54;86.56
78845;BME280;68195;50.854;2.860;2023-05-06T05:54:24;101429.75;;;12.18;86.38
78845;BME280;68195;50.854;2.860;2023-05-06T05:56:49;101500.28;;;12.60;86.64
78845;BME280;68195;50.854;2.860;2023-05-06T05:59:17;101504.47;;;12.64;86.21
78845;BME280;68195;50.854;2.860;2023-05-06T06:01:45;101503.41;;;12.68;86.49
78845;BME280;68195;50.854;2.860;2023-05-06T06:04:10;101475.41;;;12.50;86.61
78845;BME280;68195;50.854;2.860;2023-05-06T06:06:35;101500.78;;;12.68;86.65
78845;BME280;68195;50.854;2.860;2023-05-06T06:09:03;101440.22;;;12.37;86.47
78845;BME280;68195;50.854;2.860;2023-05-06T06:11:28;101510.09;;;12.74;86.48
78845;BME280;68195;50.854;2.860;2023-05-06T06:13:53;101516.00;;;12.79;86.75
78845;BME280;68195;50.854;2.860;2023-05-06T06:16:21;101475.00;;;12.59;86.66
78845;BME280;68195;50.854;2.860;2023-05-06T06:18:49;101515.72;;;12.85;86.67
78845;BME280;68195;50.854;2.860;2023-05-06T06:21:19;101498.56;;;12.78;86.52
78845;BME280;68195;50.854;2.860;2023-05-06T06:23:47;101500.22;;;12.81;86.40
78845;BME280;68195;50.854;2.860;2023-05-06T06:26:12;101513.44;;;12.97;86.49
78845;BME280;68195;50.854;2.860;2023-05-06T06:28:40;101476.91;;;12.75;86.25
78845;BME280;68195;50.854;2.860;2023-05-06T06:31:08;101479.25;;;12.81;86.03
78845;BME280;68195;50.854;2.860;2023-05-06T06:33:36;101506.28;;;13.00;85.94
78845;BME280;68195;50.854;2.860;2023-05-06T06:36:01;101509.47;;;13.07;85.81
78845;BME280;68195;50.854;2.860;2023-05-06T06:38:31;101514.84;;;13.04;85.70
78845;BME280;68195;50.854;2.860;2023-05-06T06:40:57;101524.97;;;13.11;85.97
78845;BME280;68195;50.854;2.860;2023-05-06T06:43:22;101510.63;;;13.19;85.57
78845;BME280;68195;50.854;2.860;2023-05-06T06:45:49;101465.53;;;12.93;85.67
78845;BME280;68195;50.854;2.860;2023-05-06T06:48:14;101509.50;;;13.24;85.90
78845;BME280;68195;50.854;2.860;2023-05-06T06:50:40;101467.69;;;13.02;86.15
78845;BME280;68195;50.854;2.860;2023-05-06T06:53:06;101517.66;;;13.37;85.91
78845;BME280;68195;50.854;2.860;2023-05-06T06:55:31;101395.94;;;12.68;85.95
78845;BME280;68195;50.854;2.860;2023-05-06T06:57:59;101469.28;;;13.24;85.58
78845;BME280;68195;50.854;2.860;2023-05-06T07:00:26;101495.41;;;13.44;85.40
78845;BME280;68195;50.854;2.860;2023-05-06T07:02:54;101518.03;;;13.64;85.38
78845;BME280;68195;50.854;2.860;2023-05-06T07:05:24;101495.59;;;13.59;85.12
78845;BME280;68195;50.854;2.860;2023-05-06T07:07:52;101491.25;;;13.58;84.82
78845;BME280;68195;50.854;2.860;2023-05-06T07:10:18;101522.66;;;13.77;84.87
78845;BME280;68195;50.854;2.860;2023-05-06T07:12:43;101478.28;;;13.54;84.74
78845;BME280;68195;50.854;2.860;2023-05-06T07:15:11;101466.25;;;13.50;84.60
78845;BME280;68195;50.854;2.860;2023-05-06T07:17:37;101532.00;;;14.00;84.80
78845;BME280;68195;50.854;2.860;2023-05-06T07:20:05;101495.09;;;13.85;84.87
78845;BME280;68195;50.854;2.860;2023-05-06T07:22:31;101514.16;;;14.06;84.58
78845;BME280;68195;50.854;2.860;2023-05-06T07:24:58;101534.25;;;14.23;84.45
78845;BME280;68195;50.854;2.860;2023-05-06T07:27:24;101373.47;;;13.34;83.67
78845;BME280;68195;50.854;2.860;2023-05-06T07:29:51;101525.97;;;14.31;83.72
78845;BME280;68195;50.854;2.860;2023-05-06T07:32:19;101500.75;;;14.11;83.87
78845;BME280;68195;50.854;2.860;2023-05-06T07:34:44;101533.69;;;14.34;84.20
78845;BME280;68195;50.854;2.860;2023-05-06T07:37:10;101532.53;;;14.40;84.26
78845;BME280;68195;50.854;2.860;2023-05-06T07:39:38;101491.88;;;14.13;84.26
78845;BME280;68195;50.854;2.860;2023-05-06T07:42:03;101436.38;;;13.86;84.01
78845;BME280;68195;50.854;2.860;2023-05-06T07:44:31;101538.03;;;14.51;84.25
78845;BME280;68195;50.854;2.860;2023-05-06T07:46:59;101469.50;;;14.22;83.70
78845;BME280;68195;50.854;2.860;2023-05-06T07:49:24;101536.41;;;14.66;83.70
78845;BME280;68195;50.854;2.860;2023-05-06T07:51:52;101434.41;;;14.07;83.31
78845;BME280;68195;50.854;2.860;2023-05-06T07:54:18;101537.88;;;14.71;83.83
78845;BME280;68195;50.854;2.860;2023-05-06T07:56:45;101519.28;;;14.59;83.53
78845;BME280;68195;50.854;2.860;2023-05-06T07:59:13;101517.19;;;14.48;83.79
78845;BME280;68195;50.854;2.860;2023-05-06T08:01:38;101512.41;;;14.56;83.27
78845;BME280;68195;50.854;2.860;2023-05-06T08:04:04;101544.47;;;14.79;83.26
78845;BME280;68195;50.854;2.860;2023-05-06T08:06:32;101503.50;;;14.59;83.07
78845;BME280;68195;50.854;2.860;2023-05-06T08:08:57;101541.44;;;14.86;82.86
78845;BME280;68195;50.854;2.860;2023-05-06T08:11:22;101495.53;;;14.60;82.70
78845;BME280;68195;50.854;2.860;2023-05-06T08:13:48;101551.19;;;15.00;83.10
78845;BME280;68195;50.854;2.860;2023-05-06T08:16:16;101502.41;;;14.79;83.01
78845;BME280;68195;50.854;2.860;2023-05-06T08:18:41;101539.22;;;15.10;83.28
78845;BME280;68195;50.854;2.860;2023-05-06T08:21:06;101512.50;;;15.02;82.72
78845;BME280;68195;50.854;2.860;2023-05-06T08:23:36;101524.78;;;15.17;83.02
78845;BME280;68195;50.854;2.860;2023-05-06T08:26:02;101517.47;;;15.23;82.52
78845;BME280;68195;50.854;2.860;2023-05-06T08:28:27;101551.44;;;15.57;81.00
78845;BME280;68195;50.854;2.860;2023-05-06T08:30:55;101550.84;;;15.52;80.86
78845;BME280;68195;50.854;2.860;2023-05-06T08:33:23;101538.28;;;15.57;81.28
78845;BME280;68195;50.854;2.860;2023-05-06T08:35:48;101538.16;;;15.59;80.63
78845;BME280;68195;50.854;2.860;2023-05-06T08:38:14;101546.06;;;15.75;79.70
78845;BME280;68195;50.854;2.860;2023-05-06T08:40:45;101512.31;;;15.51;80.89
78845;BME280;68195;50.854;2.860;2023-05-06T08:43:19;101540.97;;;15.72;81.48
78845;BME280;68195;50.854;2.860;2023-05-06T08:45:44;101490.75;;;15.45;81.31
78845;BME280;68195;50.854;2.860;2023-05-06T08:48:10;101526.88;;;15.73;81.31
78845;BME280;68195;50.854;2.860;2023-05-06T08:50:40;101546.84;;;15.91;80.92
78845;BME280;68195;50.854;2.860;2023-05-06T08:53:16;101543.69;;;16.01;80.39
78845;BME280;68195;50.854;2.860;2023-05-06T08:55:44;101518.75;;;15.92;80.03
78845;BME280;68195;50.854;2.860;2023-05-06T08:58:15;101536.53;;;16.17;79.94
78845;BME280;68195;50.854;2.860;2023-05-06T09:00:41;101536.84;;;16.27;79.68
78845;BME280;68195;50.854;2.860;2023-05-06T09:03:07;101507.16;;;16.23;78.52
78845;BME280;68195;50.854;2.860;2023-05-06T09:05:37;101518.84;;;16.33;78.69
78845;BME280;68195;50.854;2.860;2023-05-06T09:08:03;101509.69;;;16.39;78.75
78845;BME280;68195;50.854;2.860;2023-05-06T09:10:36;101528.06;;;16.55;79.60
78845;BME280;68195;50.854;2.860;2023-05-06T09:13:04;101417.84;;;16.04;78.99
78845;BME280;68195;50.854;2.860;2023-05-06T09:15:47;101474.38;;;16.56;78.30
78845;BME280;68195;50.854;2.860;2023-05-06T09:18:16;101519.88;;;17.01;76.99
78845;BME280;68195;50.854;2.860;2023-05-06T09:20:46;101528.59;;;17.16;76.20
78845;BME280;68195;50.854;2.860;2023-05-06T09:23:13;101519.22;;;17.25;75.46
78845;BME280;68195;50.854;2.860;2023-05-06T09:25:46;101489.84;;;17.16;75.50
78845;BME280;68195;50.854;2.860;2023-05-06T09:28:13;101489.06;;;17.29;74.67
78845;BME280;68195;50.854;2.860;2023-05-06T09:30:40;101470.88;;;17.24;74.14
78845;BME280;68195;50.854;2.860;2023-05-06T09:33:06;101508.94;;;17.47;74.24
78845;BME280;68195;50.854;2.860;2023-05-06T09:35:39;101514.03;;;17.50;74.83
78845;BME280;68195;50.854;2.860;2023-05-06T09:38:06;101506.84;;;17.52;75.15
78845;BME280;68195;50.854;2.860;2023-05-06T09:40:33;101507.38;;;17.57;74.52
78845;BME280;68195;50.854;2.860;2023-05-06T09:43:01;101461.25;;;17.23;74.75
78845;BME280;68195;50.854;2.860;2023-05-06T09:45:32;101474.13;;;17.28;74.91
78845;BME280;68195;50.854;2.860;2023-05-06T09:47:58;101515.16;;;17.46;74.80
78845;BME280;68195;50.854;2.860;2023-05-06T09:50:24;101514.47;;;17.57;75.11
78845;BME280;68195;50.854;2.860;2023-05-06T09:52:53;101511.50;;;17.61;74.37
78845;BME280;68195;50.854;2.860;2023-05-06T09:55:23;101507.06;;;17.62;74.84
78845;BME280;68195;50.854;2.860;2023-05-06T09:57:51;101499.34;;;17.59;74.97
78845;BME280;68195;50.854;2.860;2023-05-06T10:00:17;101472.09;;;17.46;75.33
78845;BME280;68195;50.854;2.860;2023-05-06T10:02:43;101492.50;;;17.69;74.46
78845;BME280;68195;50.854;2.860;2023-05-06T10:05:10;101498.84;;;17.79;74.61
78845;BME280;68195;50.854;2.860;2023-05-06T10:07:42;101501.00;;;18.00;73.72
78845;BME280;68195;50.854;2.860;2023-05-06T10:10:12;101491.91;;;18.04;74.25
78845;BME280;68195;50.854;2.860;2023-05-06T10:12:43;101483.00;;;18.05;72.53
78845;BME280;68195;50.854;2.860;2023-05-06T10:15:08;101476.78;;;18.06;72.78
78845;BME280;68195;50.854;2.860;2023-05-06T10:17:34;101488.84;;;18.23;72.77
78845;BME280;68195;50.854;2.860;2023-05-06T10:20:02;101487.44;;;18.30;72.49
78845;BME280;68195;50.854;2.860;2023-05-06T10:22:51;101497.59;;;18.36;72.26
78845;BME280;68195;50.854;2.860;2023-05-06T10:25:29;101497.59;;;18.36;72.19
78845;BME280;68195;50.854;2.860;2023-05-06T10:27:57;101503.31;;;18.30;73.03
78845;BME280;68195;50.854;2.860;2023-05-06T10:30:27;101492.41;;;18.22;73.25
78845;BME280;68195;50.854;2.860;2023-05-06T10:32:56;101497.28;;;18.28;72.15
78845;BME280;68195;50.854;2.860;2023-05-06T10:40:56;101483.22;;;18.15;73.55
78845;BME280;68195;50.854;2.860;2023-05-06T10:43:29;101488.69;;;18.24;72.83
78845;BME280;68195;50.854;2.860;2023-05-06T10:48:26;101440.94;;;18.15;71.52
78845;BME280;68195;50.854;2.860;2023-05-06T10:56:27;101475.09;;;18.55;69.10
78845;BME280;68195;50.854;2.860;2023-05-06T10:58:53;101476.81;;;18.56;70.24
78845;BME280;68195;50.854;2.860;2023-05-06T11:01:22;101470.78;;;18.54;70.93
78845;BME280;68195;50.854;2.860;2023-05-06T11:03:50;101470.78;;;18.54;70.56
78845;BME280;68195;50.854;2.860;2023-05-06T11:09:00;101475.00;;;18.56;70.08
78845;BME280;68195;50.854;2.860;2023-05-06T11:16:55;101480.19;;;18.58;67.22
78845;BME280;68195;50.854;2.860;2023-05-06T11:19:34;101471.38;;;18.57;65.84
78845;BME280;68195;50.854;2.860;2023-05-06T11:22:02;101444.84;;;18.46;67.49
78845;BME280;68195;50.854;2.860;2023-05-06T11:24:40;101476.75;;;18.69;67.01
78845;BME280;68195;50.854;2.860;2023-05-06T11:27:07;101474.31;;;18.78;67.18
78845;BME280;68195;50.854;2.860;2023-05-06T11:29:33;101471.84;;;18.88;67.60
78845;BME280;68195;50.854;2.860;2023-05-06T11:31:59;101369.84;;;18.23;66.32
78845;BME280;68195;50.854;2.860;2023-05-06T11:36:55;101374.72;;;18.53;66.11
78845;BME280;68195;50.854;2.860;2023-05-06T11:39:22;101395.34;;;18.72;66.04
78845;BME280;68195;50.854;2.860;2023-05-06T11:41:48;101455.22;;;19.10;64.95
78845;BME280;68195;50.854;2.860;2023-05-06T11:44:23;101472.84;;;19.22;64.68
78845;BME280;68195;50.854;2.860;2023-05-06T11:46:51;101423.50;;;18.97;64.33
78845;BME280;68195;50.854;2.860;2023-05-06T11:49:16;101419.22;;;19.08;63.00
78845;BME280;68195;50.854;2.860;2023-05-06T11:51:47;101406.78;;;18.97;63.16
78845;BME280;68195;50.854;2.860;2023-05-06T11:54:14;101431.75;;;19.17;61.91
78845;BME280;68195;50.854;2.860;2023-05-06T11:56:50;101436.50;;;19.24;60.83
78845;BME280;68195;50.854;2.860;2023-05-06T11:59:17;101460.34;;;19.36;60.72
78845;BME280;68195;50.854;2.860;2023-05-06T12:01:49;101442.97;;;19.20;61.23
78845;BME280;68195;50.854;2.860;2023-05-06T12:04:15;101408.25;;;19.01;60.56
78845;BME280;68195;50.854;2.860;2023-05-06T12:06:40;101468.13;;;19.26;60.25
78845;BME280;68195;50.854;2.860;2023-05-06T12:09:10;101472.88;;;19.34;61.64
78845;BME280;68195;50.854;2.860;2023-05-06T12:11:42;101447.09;;;19.24;60.68
78845;BME280;68195;50.854;2.860;2023-05-06T12:14:08;101475.06;;;19.40;61.93
78845;BME280;68195;50.854;2.860;2023-05-06T12:16:35;101464.84;;;19.46;61.92
78845;BME280;68195;50.854;2.860;2023-05-06T12:19:06;101479.56;;;19.51;61.70
78845;BME280;68195;50.854;2.860;2023-05-06T12:21:38;101419.38;;;19.17;60.60
78845;BME280;68195;50.854;2.860;2023-05-06T12:24:04;101477.38;;;19.56;60.96
78845;BME280;68195;50.854;2.860;2023-05-06T12:26:47;101467.50;;;19.46;59.87
78845;BME280;68195;50.854;2.860;2023-05-06T12:29:16;101420.94;;;19.20;59.75
78845;BME280;68195;50.854;2.860;2023-05-06T12:31:47;101414.78;;;19.08;59.92
78845;BME280;68195;50.854;2.860;2023-05-06T12:34:16;101430.41;;;19.11;60.73
78845;BME280;68195;50.854;2.860;2023-05-06T12:36:45;101360.69;;;18.64;62.13
78845;BME280;68195;50.854;2.860;2023-05-06T12:39:14;101489.72;;;19.33;61.69
78845;BME280;68195;50.854;2.860;2023-05-06T12:41:43;101315.72;;;18.16;61.27
78845;BME280;68195;50.854;2.860;2023-05-06T12:47:23;101485.19;;;19.11;62.10
78845;BME280;68195;50.854;2.860;2023-05-06T12:49:54;101492.72;;;19.04;62.35
78845;BME280;68195;50.854;2.860;2023-05-06T12:52:23;101489.31;;;18.91;61.83
78845;BME280;68195;50.854;2.860;2023-05-06T12:54:49;101387.16;;;18.27;63.04
78845;BME280;68195;50.854;2.860;2023-05-06T12:57:14;101448.31;;;18.59;62.93
78845;BME280;68195;50.854;2.860;2023-05-06T12:59:44;101489.63;;;18.86;64.19
78845;BME280;68195;50.854;2.860;2023-05-06T13:02:12;101487.09;;;18.84;64.26
78845;BME280;68195;50.854;2.860;2023-05-06T13:04:41;101450.75;;;18.62;63.14
78845;BME280;68195;50.854;2.860;2023-05-06T13:07:09;101448.00;;;18.64;62.89
78845;BME280;68195;50.854;2.860;2023-05-06T13:09:34;101472.06;;;18.72;62.08
78845;BME280;68195;50.854;2.860;2023-05-06T13:12:00;101413.56;;;18.40;63.64
78845;BME280;68195;50.854;2.860;2023-05-06T13:14:25;101467.75;;;18.71;64.52
78845;BME280;68195;50.854;2.860;2023-05-06T13:16:51;101445.50;;;18.50;63.60
78845;BME280;68195;50.854;2.860;2023-05-06T13:19:17;101423.75;;;18.33;64.89
78845;BME280;68195;50.854;2.860;2023-05-06T13:21:42;101455.00;;;18.52;64.81
78845;BME280;68195;50.854;2.860;2023-05-06T13:24:11;101449.41;;;18.44;64.54
78845;BME280;68195;50.854;2.860;2023-05-06T13:26:41;101440.88;;;18.40;64.52